Time;durP1;ratioP1;P1;durP2;ratioP2;P2;SDS_P1;SDS_P2;PMS_P1;PMS_P2;Temp;Humidity;BMP_temperature;BMP_pressure;BME280_temperature;BME280_humidity;BME280_pressure;Samples;Min_cycle;Max_cycle;Signal;HPM_P1;HPM_P2
2023/09/16 00:00:32;;;;;;;3.67;3.37;;;20.00;76.30;19.20;96431.00;;;;5101953;28;20261;-82
2023/09/16 00:02:59;;;;;;;3.83;3.53;;;20.00;76.40;19.20;96431.00;;;;5106539;28;20596;-82
2023/09/16 00:05:26;;;;;;;3.50;3.10;;;20.00;76.40;19.20;96437.00;;;;5107427;28;20228;-82
2023/09/16 00:07:54;;;;;;;3.73;3.53;;;19.90;76.40;19.10;96431.00;;;;5107480;28;20265;-81
2023/09/16 00:10:23;;;;;;;3.37;3.17;;;19.90;76.30;19.10;96426.00;;;;5100162;28;20200;-82
2023/09/16 00:12:50;;;;;;;3.30;3.10;;;19.90;76.30;19.10;96427.00;;;;5097817;28;20192;-81
2023/09/16 00:15:18;;;;;;;3.43;3.23;;;19.90;76.30;19.10;96433.00;;;;5100017;28;20282;-82
2023/09/16 00:17:45;;;;;;;3.90;3.60;;;19.90;76.40;19.10;96428.00;;;;5094947;28;20229;-82
2023/09/16 00:20:15;;;;;;;3.73;3.43;;;19.80;76.40;19.00;96433.00;;;;5096903;28;20192;-82
2023/09/16 00:22:42;;;;;;;3.37;3.17;;;19.80;76.40;19.00;96430.00;;;;5095692;28;20251;-82
2023/09/16 00:25:10;;;;;;;3.77;3.47;;;19.80;76.60;19.00;96426.00;;;;5092462;28;20199;-81
2023/09/16 00:27:40;;;;;;;3.63;3.37;;;19.80;76.80;19.00;96433.00;;;;5096134;28;20199;-82
2023/09/16 00:30:09;;;;;;;3.60;3.30;;;19.80;76.90;19.00;96434.00;;;;5097980;28;20199;-82
2023/09/16 00:32:37;;;;;;;2.90;2.70;;;19.80;77.00;19.00;96433.00;;;;5087530;28;20775;-82
2023/09/16 00:35:08;;;;;;;3.60;3.30;;;19.80;76.80;19.00;96429.00;;;;5101284;28;20290;-82
2023/09/16 00:37:35;;;;;;;3.10;2.90;;;19.80;76.70;19.00;96427.00;;;;5093420;28;20247;-82
2023/09/16 00:40:04;;;;;;;2.90;2.70;;;19.80;76.60;19.00;96427.00;;;;5102573;28;20214;-82
2023/09/16 00:42:32;;;;;;;3.27;3.07;;;19.80;76.50;19.00;96433.00;;;;5104609;28;20197;-81
2023/09/16 00:45:01;;;;;;;3.53;3.10;;;19.80;76.40;18.90;96440.00;;;;5104755;28;20237;-83
2023/09/16 00:47:28;;;;;;;3.60;3.30;;;19.70;76.10;18.90;96426.00;;;;5104771;28;20303;-82
2023/09/16 00:49:55;;;;;;;3.13;2.93;;;19.80;76.20;18.90;96432.00;;;;5102221;28;20670;-82
2023/09/16 00:52:22;;;;;;;3.50;3.30;;;19.70;76.90;18.80;96435.00;;;;5102707;28;20198;-82
2023/09/16 00:54:52;;;;;;;3.50;3.20;;;19.70;76.10;18.80;96442.00;;;;5102733;28;20302;-82
2023/09/16 00:57:19;;;;;;;3.10;2.90;;;19.70;76.10;18.80;96439.00;;;;5104276;28;20278;-82
2023/09/16 00:59:47;;;;;;;4.10;3.10;;;19.60;76.00;18.80;96445.00;;;;5100840;28;20560;-82
2023/09/16 01:02:17;;;;;;;3.13;2.93;;;19.60;76.00;18.70;96441.00;;;;5098788;28;20204;-82
2023/09/16 01:04:46;;;;;;;3.07;2.87;;;19.60;75.90;18.70;96441.00;;;;5095520;28;20203;-82
2023/09/16 01:07:14;;;;;;;3.30;3.10;;;19.60;75.90;18.70;96444.00;;;;5099946;28;20728;-83
2023/09/16 01:09:42;;;;;;;3.23;3.03;;;19.50;76.00;18.60;96444.00;;;;5102168;28;20195;-82
2023/09/16 01:12:10;;;;;;;3.10;2.90;;;19.50;76.00;18.60;96440.00;;;;5097425;28;20241;-82
2023/09/16 01:14:38;;;;;;;3.30;3.10;;;19.50;76.00;18.60;96434.00;;;;5101511;28;20191;-82
2023/09/16 01:17:16;;;;;;;3.33;3.03;;;19.50;76.10;18.60;96430.00;;;;5081762;28;20231;-82
2023/09/16 01:20:03;;;;;;;3.53;3.33;;;19.50;76.30;18.50;96432.00;;;;5095909;28;20199;-82
2023/09/16 01:22:31;;;;;;;3.90;3.60;;;19.40;76.20;18.50;96433.00;;;;5103002;28;20207;-82
2023/09/16 01:25:04;;;;;;;3.50;3.20;;;19.40;76.30;18.50;96432.00;;;;5096454;28;20593;-81
2023/09/16 01:27:32;;;;;;;3.50;3.20;;;19.40;76.20;18.50;96429.00;;;;5085038;28;20257;-81
2023/09/16 01:30:01;;;;;;;3.63;3.33;;;19.40;76.20;18.40;96424.00;;;;5100939;28;20704;-81
2023/09/16 01:32:39;;;;;;;3.40;3.20;;;19.30;76.20;18.40;96422.00;;;;5095387;28;20230;-81
2023/09/16 01:35:11;;;;;;;3.10;2.90;;;19.30;76.20;18.40;96424.00;;;;5103775;28;20572;-82
2023/09/16 01:37:42;;;;;;;3.60;3.30;;;19.30;76.20;18.30;96417.00;;;;5094929;28;20216;-81
2023/09/16 01:40:12;;;;;;;3.43;3.13;;;19.20;76.20;18.30;96417.00;;;;5103689;28;20187;-81
2023/09/16 01:42:42;;;;;;;3.50;3.30;;;19.20;76.10;18.30;96420.00;;;;5104797;28;20676;-82
2023/09/16 01:45:11;;;;;;;3.53;3.23;;;19.20;76.20;18.30;96418.00;;;;5101863;28;20193;-81
2023/09/16 01:47:38;;;;;;;4.00;3.43;;;19.20;76.30;18.30;96417.00;;;;5097149;28;20199;-82
2023/09/16 01:50:06;;;;;;;3.37;3.07;;;19.20;76.30;18.20;96404.00;;;;5100593;28;20196;-81
2023/09/16 01:52:34;;;;;;;3.60;3.40;;;19.10;76.30;18.20;96404.00;;;;5100535;28;20675;-81
2023/09/16 01:55:01;;;;;;;3.23;3.03;;;19.10;76.50;18.20;96410.00;;;;5098712;28;20691;-81
2023/09/16 01:57:30;;;;;;;3.83;3.57;;;19.10;76.70;18.20;96410.00;;;;5101484;28;20224;-81
2023/09/16 01:59:57;;;;;;;3.70;3.50;;;19.00;76.70;18.20;96413.00;;;;5101220;28;20287;-81
2023/09/16 02:02:24;;;;;;;3.57;3.27;;;19.00;76.70;18.20;96407.00;;;;5099648;28;20633;-81
2023/09/16 02:04:51;;;;;;;4.10;3.70;;;19.00;76.90;18.20;96411.00;;;;5095016;28;20206;-81
2023/09/16 02:07:19;;;;;;;4.17;3.50;;;19.00;76.90;18.10;96410.00;;;;5101251;28;20586;-81
2023/09/16 02:09:46;;;;;;;3.37;3.17;;;19.00;76.90;18.10;96412.00;;;;5104023;28;20284;-81
2023/09/16 02:12:13;;;;;;;4.50;3.97;;;19.00;76.90;18.10;96422.00;;;;5100652;28;20194;-81
2023/09/16 02:14:41;;;;;;;3.93;3.63;;;19.00;76.90;18.10;96424.00;;;;5097560;28;20287;-81
2023/09/16 02:17:07;;;;;;;3.57;3.33;;;19.00;76.80;18.10;96428.00;;;;5094096;28;20261;-81
2023/09/16 02:19:35;;;;;;;3.80;3.40;;;19.00;77.00;18.10;96421.00;;;;5101998;28;20195;-81
2023/09/16 02:22:02;;;;;;;3.50;3.20;;;18.90;77.00;18.10;96422.00;;;;5102009;28;20278;-81
2023/09/16 02:24:30;;;;;;;3.57;3.37;;;18.90;77.70;18.10;96426.00;;;;5091212;28;20391;-81
2023/09/16 02:26:57;;;;;;;3.37;3.07;;;18.90;77.00;18.10;96423.00;;;;5092514;28;20243;-81
2023/09/16 02:29:24;;;;;;;4.23;3.10;;;18.90;77.10;18.10;96424.00;;;;5099409;28;20258;-81
2023/09/16 02:31:52;;;;;;;3.70;3.40;;;18.90;77.20;18.10;96422.00;;;;5100677;28;20245;-81
2023/09/16 02:34:20;;;;;;;3.20;3.00;;;18.90;77.10;18.10;96423.00;;;;5097266;28;20195;-81
2023/09/16 02:36:47;;;;;;;3.20;3.00;;;18.90;77.00;18.00;96428.00;;;;5104414;28;20220;-81
2023/09/16 02:39:14;;;;;;;4.47;2.97;;;18.90;77.00;18.00;96425.00;;;;5097859;28;20305;-81
2023/09/16 02:41:41;;;;;;;3.33;3.13;;;18.90;77.10;18.00;96425.00;;;;5091143;28;20198;-81
2023/09/16 02:44:09;;;;;;;3.73;3.43;;;18.90;77.00;18.00;96418.00;;;;5101313;28;20278;-81
2023/09/16 02:46:36;;;;;;;3.30;3.00;;;18.90;76.90;18.00;96417.00;;;;5100927;28;20239;-81
2023/09/16 02:49:04;;;;;;;3.20;3.00;;;18.90;76.80;18.00;96421.00;;;;5100495;28;20278;-81
2023/09/16 02:51:32;;;;;;;3.50;3.20;;;18.80;76.80;17.90;96425.00;;;;5102393;28;20263;-82
2023/09/16 02:54:00;;;;;;;3.23;3.00;;;18.80;77.40;17.90;96426.00;;;;5097777;28;20199;-81
2023/09/16 02:56:28;;;;;;;3.63;3.30;;;18.80;76.60;17.90;96423.00;;;;5101769;28;20318;-81
2023/09/16 02:58:55;;;;;;;3.40;3.10;;;18.80;76.60;17.80;96427.00;;;;5097242;28;20219;-81
2023/09/16 03:01:22;;;;;;;3.03;2.83;;;18.80;76.50;17.80;96433.00;;;;5102247;28;20199;-81
2023/09/16 03:03:49;;;;;;;3.73;3.17;;;18.70;76.50;17.80;96435.00;;;;5097664;28;20279;-81
2023/09/16 03:06:18;;;;;;;3.43;3.13;;;18.70;76.60;17.80;96430.00;;;;5096199;28;20222;-81
2023/09/16 03:08:45;;;;;;;3.20;2.93;;;18.70;76.70;17.80;96429.00;;;;5097048;28;20218;-81
2023/09/16 03:11:13;;;;;;;3.30;3.10;;;18.60;76.70;17.70;96427.00;;;;5094944;28;20262;-82
2023/09/16 03:13:40;;;;;;;3.10;2.90;;;18.60;76.70;17.70;96426.00;;;;5074010;28;20266;-81
2023/09/16 03:16:17;;;;;;;3.60;3.30;;;18.60;76.70;17.70;96422.00;;;;5072489;28;20719;-82
2023/09/16 03:18:46;;;;;;;2.90;2.70;;;18.60;76.50;17.70;96410.00;;;;5080337;28;20298;-81
2023/09/16 03:21:14;;;;;;;3.03;2.83;;;18.60;76.70;17.60;96414.00;;;;5088948;28;20690;-81
2023/09/16 03:23:45;;;;;;;3.07;2.87;;;18.60;76.70;17.60;96414.00;;;;5095864;28;20282;-81
2023/09/16 03:26:15;;;;;;;3.00;2.80;;;18.50;76.60;17.60;96405.00;;;;5094596;28;20276;-81
2023/09/16 03:28:46;;;;;;;3.47;3.17;;;18.50;76.70;17.60;96409.00;;;;5094971;28;20283;-81
2023/09/16 03:31:13;;;;;;;3.63;3.00;;;18.50;76.70;17.60;96416.00;;;;5092742;28;20577;-81
2023/09/16 03:33:41;;;;;;;3.23;3.00;;;18.50;76.70;17.50;96414.00;;;;5094363;28;20218;-81
2023/09/16 03:36:08;;;;;;;3.57;3.27;;;18.50;76.70;17.50;96412.00;;;;5096542;28;20215;-81
2023/09/16 03:38:45;;;;;;;4.53;3.00;;;18.40;76.90;17.50;96418.00;;;;5091766;28;20619;-81
2023/09/16 03:41:15;;;;;;;2.73;2.53;;;18.40;76.90;17.50;96413.00;;;;5088491;28;20191;-82
2023/09/16 03:43:41;;;;;;;2.90;2.57;;;18.40;76.90;17.40;96414.00;;;;5094216;28;20200;-81
2023/09/16 03:46:09;;;;;;;3.60;3.30;;;18.40;76.90;17.40;96417.00;;;;5098805;28;20220;-81
2023/09/16 03:48:36;;;;;;;3.03;2.83;;;18.40;76.90;17.40;96422.00;;;;5091080;28;20195;-81
2023/09/16 03:51:06;;;;;;;3.30;3.10;;;18.30;76.80;17.40;96421.00;;;;5093717;28;20282;-81
2023/09/16 03:53:34;;;;;;;3.37;3.07;;;18.30;77.00;17.40;96425.00;;;;5097182;28;20241;-81
2023/09/16 03:56:05;;;;;;;3.60;2.63;;;18.30;77.00;17.40;96418.00;;;;5092111;28;20593;-82
2023/09/16 03:58:35;;;;;;;3.90;2.80;;;18.30;77.00;17.30;96407.00;;;;5095451;28;20688;-81
2023/09/16 04:01:03;;;;;;;3.30;3.00;;;18.30;77.00;17.30;96402.00;;;;5090780;28;20196;-81
2023/09/16 04:03:30;;;;;;;3.80;3.30;;;18.30;77.00;17.30;96407.00;;;;5093982;28;20191;-82
2023/09/16 04:05:58;;;;;;;3.13;2.93;;;18.20;77.00;17.30;96401.00;;;;5097237;28;20306;-82
2023/09/16 04:08:28;;;;;;;3.30;3.00;;;18.20;77.10;17.30;96409.00;;;;5097397;28;20218;-81
2023/09/16 04:10:56;;;;;;;3.10;2.90;;;18.20;77.10;17.30;96404.00;;;;5099301;28;20234;-82
2023/09/16 04:13:23;;;;;;;3.00;2.80;;;18.20;77.20;17.30;96402.00;;;;5100783;28;20202;-81
2023/09/16 04:15:54;;;;;;;3.67;3.13;;;18.20;77.10;17.30;96402.00;;;;5097501;28;20749;-81
2023/09/16 04:18:22;;;;;;;2.97;2.77;;;18.20;77.00;17.30;96409.00;;;;5096716;28;20284;-81
2023/09/16 04:20:50;;;;;;;3.33;2.60;;;18.20;77.00;17.20;96406.00;;;;5095035;28;20191;-81
2023/09/16 04:23:18;;;;;;;3.00;2.80;;;18.20;76.90;17.30;96405.00;;;;5099533;28;20987;-81
2023/09/16 04:25:45;;;;;;;2.83;2.63;;;18.20;76.80;17.20;96401.00;;;;5100747;28;20264;-81
2023/09/16 04:28:15;;;;;;;2.97;2.77;;;18.20;76.90;17.20;96398.00;;;;5095103;28;20191;-81
2023/09/16 04:30:50;;;;;;;3.20;2.90;;;18.10;76.80;17.20;96407.00;;;;5100068;28;20191;-81
2023/09/16 04:33:19;;;;;;;3.20;2.90;;;18.10;76.60;17.10;96409.00;;;;5096805;28;20202;-81
2023/09/16 04:35:47;;;;;;;3.20;2.93;;;18.10;76.70;17.10;96407.00;;;;5092859;28;20212;-81
2023/09/16 04:38:15;;;;;;;3.03;2.83;;;18.10;76.90;17.10;96409.00;;;;5094831;28;20591;-81
2023/09/16 04:40:43;;;;;;;3.20;2.80;;;18.10;77.00;17.10;96409.00;;;;5101826;28;20202;-81
2023/09/16 04:43:13;;;;;;;3.43;3.13;;;18.10;77.00;17.10;96403.00;;;;5091684;28;20191;-81
2023/09/16 04:45:44;;;;;;;3.20;3.00;;;18.00;76.90;17.10;96403.00;;;;5097180;28;20680;-81
2023/09/16 04:48:13;;;;;;;3.50;3.23;;;18.00;76.90;17.10;96403.00;;;;5097419;28;20620;-81
2023/09/16 04:50:45;;;;;;;3.70;3.40;;;18.00;76.90;17.00;96411.00;;;;5096257;28;20196;-81
2023/09/16 04:53:13;;;;;;;2.50;2.30;;;18.00;76.80;17.00;96414.00;;;;5095456;28;20207;-81
2023/09/16 04:55:41;;;;;;;2.73;2.63;;;18.00;77.00;17.00;96412.00;;;;5091946;28;20291;-81
2023/09/16 04:58:08;;;;;;;2.80;2.60;;;17.90;77.00;17.00;96410.00;;;;5094318;28;20219;-82
2023/09/16 05:00:35;;;;;;;2.80;2.60;;;18.00;77.10;17.00;96413.00;;;;5092593;28;20196;-81
2023/09/16 05:03:04;;;;;;;3.40;3.20;;;17.90;77.20;17.00;96410.00;;;;5092755;28;20282;-81
2023/09/16 05:05:31;;;;;;;3.20;2.93;;;17.90;77.30;17.00;96414.00;;;;5094671;28;20216;-81
2023/09/16 05:08:00;;;;;;;2.90;2.70;;;17.90;77.90;17.00;96414.00;;;;5097677;28;20205;-81
2023/09/16 05:10:27;;;;;;;2.63;2.43;;;17.90;77.20;17.00;96409.00;;;;5098477;28;20585;-81
2023/09/16 05:12:55;;;;;;;2.70;2.50;;;17.90;78.00;17.00;96408.00;;;;5090195;28;20188;-81
2023/09/16 05:15:22;;;;;;;3.40;3.20;;;17.90;77.30;17.00;96409.00;;;;5100378;28;20230;-81
2023/09/16 05:17:49;;;;;;;3.17;2.87;;;17.90;77.30;16.90;96402.00;;;;5076009;28;20194;-82
2023/09/16 05:20:16;;;;;;;3.20;2.90;;;17.90;77.30;16.90;96405.00;;;;5094651;28;20307;-81
2023/09/16 05:22:48;;;;;;;2.93;2.73;;;17.90;77.50;16.90;96411.00;;;;5095858;28;20227;-81
2023/09/16 05:25:18;;;;;;;3.30;3.00;;;17.90;77.50;16.90;96406.00;;;;5098128;28;20211;-81
2023/09/16 05:27:47;;;;;;;3.53;3.33;;;17.90;77.70;17.00;96410.00;;;;5098917;28;20200;-81
2023/09/16 05:30:15;;;;;;;3.73;2.80;;;17.80;77.70;17.00;96406.00;;;;5098464;28;20196;-81
2023/09/16 05:32:43;;;;;;;4.00;3.07;;;17.80;77.80;17.00;96405.00;;;;5098886;28;20196;-81
2023/09/16 05:35:10;;;;;;;3.17;2.97;;;17.90;78.00;17.00;96399.00;;;;5098458;28;20195;-81
2023/09/16 05:37:37;;;;;;;3.43;3.13;;;17.90;78.10;17.00;96395.00;;;;5094640;28;20278;-81
2023/09/16 05:40:06;;;;;;;3.70;3.40;;;17.90;78.30;17.00;96389.00;;;;5099876;28;20226;-81
2023/09/16 05:42:35;;;;;;;3.47;3.17;;;17.90;78.50;17.10;96392.00;;;;5091419;28;20200;-81
2023/09/16 05:45:04;;;;;;;3.57;3.27;;;17.90;78.60;17.10;96391.00;;;;5099028;28;20230;-81
2023/09/16 05:47:32;;;;;;;3.60;3.30;;;17.90;78.70;17.10;96396.00;;;;5092962;28;20287;-81
2023/09/16 05:49:59;;;;;;;3.90;3.60;;;18.00;78.90;17.10;96399.00;;;;5099816;28;20199;-81
2023/09/16 05:52:26;;;;;;;2.97;2.77;;;18.00;79.00;17.10;96397.00;;;;5100215;28;20195;-81
2023/09/16 05:54:54;;;;;;;3.40;3.17;;;18.00;79.10;17.20;96406.00;;;;5098964;28;20643;-81
2023/09/16 05:57:21;;;;;;;3.10;2.90;;;18.00;79.20;17.20;96402.00;;;;5096860;28;20230;-81
2023/09/16 05:59:50;;;;;;;4.03;3.70;;;18.10;79.30;17.20;96403.00;;;;5095707;28;20215;-81
2023/09/16 06:02:17;;;;;;;3.70;3.40;;;18.10;79.30;17.30;96404.00;;;;5095230;28;20195;-81
2023/09/16 06:04:44;;;;;;;3.33;3.10;;;18.10;79.30;17.30;96407.00;;;;5098171;28;20290;-81
2023/09/16 06:07:11;;;;;;;3.93;3.63;;;18.10;79.40;17.30;96408.00;;;;5094632;28;20219;-81
2023/09/16 06:09:38;;;;;;;3.67;3.37;;;18.20;79.60;17.40;96419.00;;;;5093781;28;20200;-81
2023/09/16 06:12:06;;;;;;;3.90;3.60;;;18.20;79.70;17.40;96416.00;;;;5096165;28;20205;-81
2023/09/16 06:14:33;;;;;;;4.00;3.20;;;18.30;79.80;17.50;96419.00;;;;5091462;28;20206;-81
2023/09/16 06:17:02;;;;;;;4.00;3.70;;;18.30;79.80;17.50;96415.00;;;;5089474;28;20219;-82
2023/09/16 06:19:31;;;;;;;3.77;3.47;;;18.30;79.90;17.60;96412.00;;;;5088597;28;20577;-82
2023/09/16 06:21:59;;;;;;;3.50;3.30;;;18.40;79.90;17.60;96412.00;;;;5088516;28;20196;-81
2023/09/16 06:24:26;;;;;;;3.90;3.60;;;18.40;79.90;17.70;96401.00;;;;5093916;28;20199;-81
2023/09/16 06:26:54;;;;;;;4.17;3.80;;;18.50;80.00;17.70;96409.00;;;;5091629;28;20218;-82
2023/09/16 06:29:21;;;;;;;4.33;3.93;;;18.50;80.00;17.80;96407.00;;;;5092198;28;20917;-81
2023/09/16 06:31:48;;;;;;;4.23;3.87;;;18.60;80.20;17.80;96405.00;;;;5091050;28;20218;-82
2023/09/16 06:34:17;;;;;;;4.43;4.13;;;18.60;80.20;17.90;96404.00;;;;5091249;28;20637;-81
2023/09/16 06:36:44;;;;;;;5.10;4.30;;;18.70;80.30;17.90;96408.00;;;;5092843;28;20221;-81
2023/09/16 06:39:11;;;;;;;4.67;4.27;;;18.70;80.40;18.00;96418.00;;;;5090125;28;20258;-82
2023/09/16 06:41:39;;;;;;;5.70;5.17;;;18.70;80.40;18.00;96405.00;;;;5092930;28;20191;-82
2023/09/16 06:44:06;;;;;;;5.30;4.80;;;18.80;80.60;18.10;96409.00;;;;5094021;28;20278;-82
2023/09/16 06:46:33;;;;;;;5.40;5.00;;;18.80;80.70;18.10;96414.00;;;;5088997;28;20220;-82
2023/09/16 06:49:00;;;;;;;5.20;4.80;;;18.90;80.80;18.20;96402.00;;;;5087595;28;20203;-81
2023/09/16 06:51:29;;;;;;;5.20;4.57;;;18.90;80.90;18.30;96408.00;;;;5086340;28;20679;-81
2023/09/16 06:53:56;;;;;;;5.50;4.90;;;19.00;81.10;18.30;96411.00;;;;5096199;28;20199;-80
2023/09/16 06:56:24;;;;;;;7.53;5.17;;;19.00;81.10;18.40;96414.00;;;;5102498;28;20311;-81
2023/09/16 06:58:51;;;;;;;5.53;5.03;;;19.10;81.10;18.40;96419.00;;;;5085847;28;20514;-82
2023/09/16 07:01:18;;;;;;;6.77;5.60;;;19.10;81.10;18.50;96413.00;;;;5094618;28;20305;-82
2023/09/16 07:03:45;;;;;;;5.23;4.83;;;19.20;81.10;18.60;96408.00;;;;5095095;28;20287;-83
2023/09/16 07:06:13;;;;;;;5.43;4.93;;;19.30;81.20;18.60;96404.00;;;;5090531;28;20551;-82
2023/09/16 07:08:41;;;;;;;5.57;5.17;;;19.30;81.20;18.70;96403.00;;;;5073165;28;20199;-81
2023/09/16 07:11:11;;;;;;;5.43;4.97;;;19.40;81.30;18.80;96404.00;;;;5095265;28;20581;-81
2023/09/16 07:13:38;;;;;;;5.73;5.23;;;19.40;81.30;18.80;96404.00;;;;5093407;28;20226;-80
2023/09/16 07:16:07;;;;;;;5.83;5.33;;;19.50;81.50;18.90;96403.00;;;;5099790;28;20299;-81
2023/09/16 07:18:35;;;;;;;6.13;5.63;;;19.60;81.50;19.00;96401.00;;;;5089785;28;20193;-81
2023/09/16 07:21:02;;;;;;;5.83;5.30;;;19.60;81.40;19.00;96398.00;;;;5087949;28;20206;-81
2023/09/16 07:23:29;;;;;;;5.40;4.90;;;19.70;81.40;19.10;96404.00;;;;5092384;28;20207;-81
2023/09/16 07:25:59;;;;;;;5.33;4.90;;;19.70;81.40;19.20;96413.00;;;;5097272;28;20705;-82
2023/09/16 07:28:28;;;;;;;6.97;5.57;;;19.80;81.40;19.30;96418.00;;;;5096444;28;20197;-82
2023/09/16 07:30:56;;;;;;;5.70;5.07;;;19.90;81.50;19.40;96420.00;;;;5092342;28;20219;-83
2023/09/16 07:33:23;;;;;;;6.00;5.47;;;20.00;81.50;19.50;96426.00;;;;5089825;28;20290;-82
2023/09/16 07:35:51;;;;;;;5.67;5.27;;;20.00;81.50;19.50;96414.00;;;;5092902;28;20219;-82
2023/09/16 07:38:18;;;;;;;5.50;5.00;;;20.10;81.60;19.60;96419.00;;;;5087708;28;20219;-83
2023/09/16 07:40:45;;;;;;;5.90;5.40;;;20.20;81.60;19.70;96424.00;;;;5093295;28;20221;-83
2023/09/16 07:43:16;;;;;;;5.87;5.37;;;20.30;81.50;19.80;96418.00;;;;5085528;28;20199;-83
2023/09/16 07:45:43;;;;;;;5.57;5.07;;;20.40;81.50;19.90;96425.00;;;;5088725;28;20300;-83
2023/09/16 07:48:10;;;;;;;5.87;5.27;;;20.50;81.40;20.10;96430.00;;;;5089159;28;20195;-82
2023/09/16 07:50:38;;;;;;;5.60;5.10;;;20.60;81.40;20.20;96431.00;;;;5090529;28;20204;-83
2023/09/16 07:53:05;;;;;;;6.00;5.50;;;20.70;81.20;20.30;96442.00;;;;5088285;28;20205;-82
2023/09/16 07:55:32;;;;;;;5.47;5.03;;;20.80;81.10;20.40;96442.00;;;;5086248;28;20300;-82
2023/09/16 07:58:00;;;;;;;5.83;5.33;;;20.90;81.00;20.50;96444.00;;;;5087761;28;20195;-83
2023/09/16 08:00:29;;;;;;;5.93;5.37;;;21.00;81.10;20.60;96443.00;;;;5093153;28;20302;-82
2023/09/16 08:02:57;;;;;;;5.77;5.17;;;21.10;81.00;20.70;96451.00;;;;5094037;28;20204;-82
2023/09/16 08:05:24;;;;;;;6.60;6.10;;;21.20;81.00;20.80;96460.00;;;;5094521;28;20222;-82
2023/09/16 08:07:51;;;;;;;6.47;5.90;;;21.30;80.90;20.90;96461.00;;;;5076595;28;20203;-82
2023/09/16 08:10:19;;;;;;;6.07;5.57;;;21.50;80.90;21.00;96462.00;;;;5094793;28;20196;-82
2023/09/16 08:12:47;;;;;;;6.20;5.70;;;21.60;80.60;21.10;96469.00;;;;5087671;28;20204;-81
2023/09/16 08:15:14;;;;;;;6.20;5.60;;;21.60;80.20;21.20;96456.00;;;;5096013;28;20225;-81
2023/09/16 08:17:43;;;;;;;7.17;6.47;;;21.70;80.00;21.30;96473.00;;;;5095280;28;20196;-82
2023/09/16 08:20:11;;;;;;;6.83;6.27;;;21.80;79.50;21.40;96469.00;;;;5087945;28;20242;-82
2023/09/16 08:22:38;;;;;;;6.33;5.83;;;21.90;79.60;21.60;96472.00;;;;5093158;28;20215;-82
2023/09/16 08:25:06;;;;;;;6.80;6.20;;;22.00;79.70;21.70;96468.00;;;;5091366;28;20209;-82
2023/09/16 08:27:34;;;;;;;6.00;5.50;;;22.10;79.60;21.80;96462.00;;;;5071006;28;20680;-81
2023/09/16 08:30:01;;;;;;;5.97;5.47;;;22.30;79.50;21.90;96467.00;;;;5067424;28;20226;-82
2023/09/16 08:32:29;;;;;;;6.20;5.63;;;22.30;79.20;22.00;96464.00;;;;5093028;28;20192;-82
2023/09/16 08:34:58;;;;;;;6.23;5.67;;;22.50;79.50;22.10;96461.00;;;;5082926;28;20206;-82
2023/09/16 08:37:25;;;;;;;5.97;5.47;;;22.60;79.30;22.20;96463.00;;;;5083071;28;20204;-81
2023/09/16 08:39:52;;;;;;;6.57;5.87;;;22.70;79.10;22.30;96469.00;;;;5090315;28;20225;-81
2023/09/16 08:42:29;;;;;;;6.60;5.93;;;22.80;79.00;22.50;96463.00;;;;5086990;28;20204;-79
2023/09/16 08:45:04;;;;;;;6.23;5.73;;;22.90;78.20;22.60;96458.00;;;;5088874;28;20199;-79
2023/09/16 08:47:35;;;;;;;5.43;4.93;;;23.00;78.30;22.70;96462.00;;;;5091148;28;20711;-79
2023/09/16 08:50:09;;;;;;;6.20;5.70;;;23.20;78.50;22.80;96458.00;;;;5085488;28;20295;-79
2023/09/16 08:52:47;;;;;;;6.13;5.63;;;23.30;78.10;22.90;96457.00;;;;5081969;28;20202;-79
2023/09/16 08:55:15;;;;;;;5.23;4.83;;;23.40;78.00;23.00;96459.00;;;;5085996;28;20229;-80
2023/09/16 08:57:52;;;;;;;5.33;4.90;;;23.50;78.40;23.10;96457.00;;;;5087118;28;20194;-80
2023/09/16 09:00:20;;;;;;;5.27;4.73;;;23.60;78.30;23.30;96446.00;;;;5088410;28;20223;-81
2023/09/16 09:02:50;;;;;;;5.23;4.83;;;23.70;78.60;23.40;96455.00;;;;5091768;28;20283;-81
2023/09/16 09:05:23;;;;;;;5.07;4.67;;;23.80;78.40;23.50;96451.00;;;;5095332;28;20218;-80
2023/09/16 09:07:51;;;;;;;5.27;4.87;;;23.90;78.30;23.60;96451.00;;;;5094929;28;20289;-81
2023/09/16 09:10:18;;;;;;;5.83;5.33;;;24.00;78.30;23.80;96448.00;;;;5089645;28;20259;-81
2023/09/16 09:12:45;;;;;;;4.70;4.40;;;24.10;78.20;23.90;96448.00;;;;5087163;28;20190;-81
2023/09/16 09:15:16;;;;;;;4.47;4.17;;;24.20;78.00;24.00;96447.00;;;;5088718;28;20199;-81
2023/09/16 09:17:49;;;;;;;4.87;4.47;;;24.40;78.10;24.20;96451.00;;;;5093785;28;20296;-81
2023/09/16 09:20:26;;;;;;;4.57;4.20;;;24.50;77.60;24.30;96450.00;;;;5089283;28;20246;-81
2023/09/16 09:22:54;;;;;;;4.03;3.73;;;24.60;76.90;24.50;96454.00;;;;5090496;28;20200;-81
2023/09/16 09:25:22;;;;;;;5.03;4.43;;;24.80;77.40;24.60;96453.00;;;;5095011;28;20708;-81
2023/09/16 09:27:51;;;;;;;3.97;3.67;;;24.90;77.30;24.80;96453.00;;;;5093027;28;20682;-82
2023/09/16 09:30:24;;;;;;;4.23;3.83;;;25.00;76.90;24.90;96448.00;;;;5095495;28;20766;-81
2023/09/16 09:32:52;;;;;;;4.10;3.80;;;25.20;76.90;25.00;96453.00;;;;5094576;28;20192;-82
2023/09/16 09:35:22;;;;;;;4.57;4.27;;;25.30;76.90;25.20;96448.00;;;;5092986;28;20222;-81
2023/09/16 09:37:51;;;;;;;4.27;3.97;;;25.40;76.40;25.30;96447.00;;;;5054091;28;20192;-81
2023/09/16 09:40:20;;;;;;;4.33;4.03;;;25.60;76.50;25.40;96449.00;;;;5088701;28;20219;-83
2023/09/16 09:42:50;;;;;;;4.40;4.03;;;25.70;76.10;25.50;96452.00;;;;5093594;28;20218;-81
2023/09/16 09:45:20;;;;;;;4.20;3.90;;;25.80;74.70;25.60;96454.00;;;;5083876;28;20250;-82
2023/09/16 09:47:50;;;;;;;4.10;3.80;;;25.90;74.60;25.80;96452.00;;;;5094001;28;20282;-82
2023/09/16 09:50:25;;;;;;;4.50;4.13;;;26.00;74.40;25.90;96461.00;;;;5088146;28;20192;-82
2023/09/16 09:52:55;;;;;;;4.47;4.10;;;26.20;74.40;26.00;96462.00;;;;5094653;28;20199;-82
2023/09/16 09:55:24;;;;;;;4.33;4.03;;;26.30;73.80;26.20;96456.00;;;;5094595;28;20771;-81
2023/09/16 09:57:53;;;;;;;4.73;4.33;;;26.40;73.00;26.30;96460.00;;;;5095078;28;20202;-82
2023/09/16 10:00:22;;;;;;;4.17;3.87;;;26.50;72.90;26.40;96453.00;;;;5093493;28;20223;-81
2023/09/16 10:02:51;;;;;;;3.57;3.27;;;26.60;72.60;26.50;96457.00;;;;5095111;28;20664;-81
2023/09/16 10:05:20;;;;;;;3.70;3.50;;;26.70;72.50;26.60;96455.00;;;;5093207;28;20216;-81
2023/09/16 10:07:51;;;;;;;4.77;4.20;;;26.80;72.50;26.70;96453.00;;;;5089402;28;20953;-81
2023/09/16 10:10:21;;;;;;;4.00;3.60;;;26.90;72.30;26.80;96461.00;;;;5093056;28;20199;-80
2023/09/16 10:12:51;;;;;;;3.30;3.10;;;27.00;72.30;26.90;96455.00;;;;5093353;28;20192;-81
2023/09/16 10:15:23;;;;;;;3.95;3.67;;;27.20;71.90;27.00;96452.00;;;;5088775;28;20729;-81
2023/09/16 10:17:51;;;;;;;4.03;3.65;;;27.20;71.90;27.10;96453.00;;;;5094580;28;20191;-81
2023/09/16 10:20:19;;;;;;;3.70;3.50;;;27.30;71.60;27.20;96448.00;;;;5093302;28;20250;-81
2023/09/16 10:22:46;;;;;;;3.40;3.20;;;27.40;71.20;27.30;96449.00;;;;5089438;28;20198;-81
2023/09/16 10:25:18;;;;;;;3.50;3.30;;;27.50;71.30;27.40;96450.00;;;;5090384;28;20206;-81
2023/09/16 10:27:55;;;;;;;4.07;3.40;;;27.60;71.00;27.50;96444.00;;;;5094137;28;20245;-81
2023/09/16 10:30:23;;;;;;;4.28;3.83;;;27.70;70.60;27.60;96450.00;;;;5097018;28;20186;-81
2023/09/16 10:32:52;;;;;;;3.97;3.67;;;27.80;71.20;27.60;96446.00;;;;5098079;28;20193;-81
2023/09/16 10:35:20;;;;;;;4.35;4.05;;;27.90;71.10;27.70;96446.00;;;;5093505;28;20221;-81
2023/09/16 10:37:52;;;;;;;3.83;3.53;;;28.00;70.30;27.80;96444.00;;;;5086555;28;20196;-81
2023/09/16 10:40:22;;;;;;;4.00;3.70;;;28.10;70.20;27.90;96446.00;;;;5097488;28;20251;-83
2023/09/16 10:42:51;;;;;;;3.28;2.97;;;28.20;69.50;28.00;96449.00;;;;5095751;28;20707;-84
2023/09/16 10:45:21;;;;;;;3.60;3.40;;;28.20;69.70;28.00;96453.00;;;;5081418;28;20222;-84
2023/09/16 10:47:51;;;;;;;3.00;2.83;;;28.30;69.60;28.00;96450.00;;;;5086870;28;20188;-84
2023/09/16 10:50:18;;;;;;;3.58;3.30;;;28.40;69.40;28.00;96445.00;;;;5085686;28;20684;-83
2023/09/16 10:52:53;;;;;;;3.40;3.20;;;28.40;69.30;28.00;96445.00;;;;5086962;28;20200;-83
2023/09/16 10:55:30;;;;;;;3.60;3.30;;;28.40;67.30;27.90;96445.00;;;;5087951;28;20230;-83
2023/09/16 10:58:04;;;;;;;3.80;3.50;;;28.40;66.80;27.90;96438.00;;;;5088097;28;20198;-83
2023/09/16 11:00:39;;;;;;;3.30;3.10;;;28.30;66.50;27.90;96445.00;;;;5086561;28;20760;-84